Cyprus Cement — C6UP5 — position and weather

sailwx.info

Track history (hours):
 
Tides and Currents Weather Stations Pressure Air Temp Water Temp Dewpoint Dewpoint Depression Visibility Wind Speed Wind Dir Waves Ship Positions

Cyprus Cement

Last reported at 2014-Aug-30 07:24 UTC. Time now 2014-Aug-31 00:36 UTC.
Position N 69°33' E 018°45'.

Length 97 m; draft 4.6 m.

Type: Cargo ship. MMSI: 311988000.

Date/timePositionNaut miles runAvg speedWind from/ knotsBaromVisibWave heightAir tempDewpointWater temp
2014-Aug-30 07:24N 69°33' E 018°45'910.6
2014-Aug-30 06:33N 69°40' E 019°01'9311.3
2014-Aug-29 22:20N 70°30' E 022°52'1312.3
2014-Aug-29 21:16N 70°38' E 023°22'6 0.3
2014-Aug-29 02:33N 70°38' E 023°40'8 7.8
2014-Aug-29 01:28N 70°36' E 023°15'9711.7
2014-Aug-28 17:09N 69°46' E 019°10'711.0
2014-Aug-28 16:33N 69°41' E 019°01'16210.8
2014-Aug-28 01:29N 67°35' E 014°17'1112.1
2014-Aug-28 00:34N 67°25' E 014°27'1212.0
2014-Aug-27 23:34N 67°15' E 014°10'1412.3
2014-Aug-27 22:26N 67°03' E 013°51'3610.9
2014-Aug-27 19:07N 66°33' E 013°01'7 9.9
2014-Aug-27 18:26N 66°26' E 012°60'7711.2
2014-Aug-27 11:33N 65°13' E 011°54'1212.1
2014-Aug-27 10:33N 65°02' E 011°42'1111.4
2014-Aug-27 09:33N 64°55' E 011°22'1211.8
2014-Aug-27 08:33N 64°46' E 011°03'83 9.1
2014-Aug-26 23:30N 63°29' E 009°56'1111.4
2014-Aug-26 22:33N 63°32' E 010°20'9 0.7
2014-Aug-26 10:30N 63°36' E 010°36'9 9.4
2014-Aug-26 09:34N 63°29' E 010°27'2 2.0
2014-Aug-26 08:33N 63°27' E 010°25'0 0.0
2014-Aug-26 07:33N 63°27' E 010°25'0 0.0
2014-Aug-26 06:33N 63°27' E 010°25'0 0.0
2014-Aug-26 05:33N 63°27' E 010°25'0 0.0
2014-Aug-26 04:33N 63°27' E 010°25'0 0.0
2014-Aug-26 03:33N 63°27' E 010°25'0 0.0
2014-Aug-26 02:33N 63°27' E 010°25'0 0.0
2014-Aug-26 01:33N 63°27' E 010°25'0 0.0
2014-Aug-26 00:33N 63°27' E 010°25'0 0.0
2014-Aug-25 23:33N 63°27' E 010°25'6 6.1
2014-Aug-25 22:33N 63°28' E 010°12'278 5.7
2014-Aug-23 22:04N 59°30' E 005°13'510.5
2014-Aug-23 21:33N 59°25' E 005°15'1110.9
2014-Aug-23 20:34N 59°14' E 005°21'10 9.9
2014-Aug-23 19:33N 59°06' E 005°31'108 6.0
2014-Aug-23 01:30N 58°03' E 008°18'1212.6
2014-Aug-23 00:33N 58°11' E 008°36'1312.9
2014-Aug-22 23:33N 58°19' E 008°54'5011.7
2014-Aug-22 19:17N 59°02' E 009°44'  
Track history (hours):
 
Tides and Currents Weather Stations Pressure Air Temp Water Temp Dewpoint Dewpoint Depression Visibility Wind Speed Wind Dir Waves Ship Positions

Cyprus Cement

Last reported at 2014-Aug-30 07:24 UTC. Time now 2014-Aug-31 00:36 UTC.
Position N 69°33' E 018°45'.

Length 97 m; draft 4.6 m.

Type: Cargo ship. MMSI: 311988000.

Date/timePositionNaut miles runAvg speedWind from/ knotsBaromVisibWave heightAir tempDewpointWater temp
2014-Aug-30 07:24N 69°33' E 018°45'910.6
2014-Aug-30 06:33N 69°40' E 019°01'9311.3
2014-Aug-29 22:20N 70°30' E 022°52'1312.3
2014-Aug-29 21:16N 70°38' E 023°22'6 0.3
2014-Aug-29 02:33N 70°38' E 023°40'8 7.8
2014-Aug-29 01:28N 70°36' E 023°15'9711.7
2014-Aug-28 17:09N 69°46' E 019°10'711.0
2014-Aug-28 16:33N 69°41' E 019°01'16210.8
2014-Aug-28 01:29N 67°35' E 014°17'1112.1
2014-Aug-28 00:34N 67°25' E 014°27'1212.0
2014-Aug-27 23:34N 67°15' E 014°10'1412.3
2014-Aug-27 22:26N 67°03' E 013°51'3610.9
2014-Aug-27 19:07N 66°33' E 013°01'7 9.9
2014-Aug-27 18:26N 66°26' E 012°60'7711.2
2014-Aug-27 11:33N 65°13' E 011°54'1212.1
2014-Aug-27 10:33N 65°02' E 011°42'1111.4
2014-Aug-27 09:33N 64°55' E 011°22'1211.8
2014-Aug-27 08:33N 64°46' E 011°03'83 9.1
2014-Aug-26 23:30N 63°29' E 009°56'1111.4
2014-Aug-26 22:33N 63°32' E 010°20'9 0.7
2014-Aug-26 10:30N 63°36' E 010°36'9 9.4
2014-Aug-26 09:34N 63°29' E 010°27'2 2.0
2014-Aug-26 08:33N 63°27' E 010°25'0 0.0
2014-Aug-26 07:33N 63°27' E 010°25'0 0.0
2014-Aug-26 06:33N 63°27' E 010°25'0 0.0
2014-Aug-26 05:33N 63°27' E 010°25'0 0.0
2014-Aug-26 04:33N 63°27' E 010°25'0 0.0
2014-Aug-26 03:33N 63°27' E 010°25'0 0.0
2014-Aug-26 02:33N 63°27' E 010°25'0 0.0
2014-Aug-26 01:33N 63°27' E 010°25'0 0.0
2014-Aug-26 00:33N 63°27' E 010°25'0 0.0
2014-Aug-25 23:33N 63°27' E 010°25'6 6.1
2014-Aug-25 22:33N 63°28' E 010°12'278 5.7
2014-Aug-23 22:04N 59°30' E 005°13'510.5
2014-Aug-23 21:33N 59°25' E 005°15'1110.9
2014-Aug-23 20:34N 59°14' E 005°21'10 9.9
2014-Aug-23 19:33N 59°06' E 005°31'108 6.0
2014-Aug-23 01:30N 58°03' E 008°18'1212.6
2014-Aug-23 00:33N 58°11' E 008°36'1312.9
2014-Aug-22 23:33N 58°19' E 008°54'5011.7
2014-Aug-22 19:17N 59°02' E 009°44'  

Dump ship's entire track history